Time;durP1;ratioP1;P1;durP2;ratioP2;P2;SDS_P1;SDS_P2;PMS_P1;PMS_P2;Temp;Humidity;BMP_temperature;BMP_pressure;BME280_temperature;BME280_humidity;BME280_pressure;Samples;Min_cycle;Max_cycle;Signal;HPM_P1;HPM_P2
2022/06/22 00:00:18;;;;;;;;;;;;;;;23.77;49.73;94809.13;2041737;29;2077;-53
2022/06/22 00:01:25;;;;;;;;;;;;;;;23.76;49.59;94807.50;2040719;29;1679;-53
2022/06/22 00:02:29;;;;;;;;;;;;;;;23.71;49.53;94803.91;2034982;29;1497;-53
2022/06/22 00:03:35;;;;;;;;;;;;;;;23.68;49.71;94816.72;2039940;29;1678;-58
2022/06/22 00:04:49;;;;;;;;;;;;;;;23.69;49.57;94809.47;2036642;29;1480;-56
2022/06/22 00:05:52;;;;;;;;;;;;;;;23.68;49.66;94813.22;2037337;29;1044;-55
2022/06/22 00:06:56;;;;;;;;;;;;;;;23.73;49.43;94809.81;2035959;29;1608;-56
2022/06/22 00:07:59;;;;;;;;;;;;;;;23.71;49.38;94810.06;2034263;29;1685;-54
2022/06/22 00:09:02;;;;;;;;;;;;;;;23.66;49.68;94810.78;2033784;29;1109;-57
2022/06/22 00:10:07;;;;;;;;;;;;;;;23.65;49.76;94816.38;2048306;29;1205;-54
2022/06/22 00:11:13;;;;;;;;;;;;;;;23.65;49.62;94808.34;2049524;28;1271;-55
2022/06/22 00:12:20;;;;;;;;;;;;;;;23.64;49.64;94809.38;2049296;28;1170;-53
2022/06/22 00:13:26;;;;;;;;;;;;;;;23.64;49.87;94804.00;2049441;29;2065;-54
2022/06/22 00:14:29;;;;;;;;;;;;;;;23.67;49.43;94807.03;2049629;28;1958;-53
2022/06/22 00:15:35;;;;;;;;;;;;;;;23.64;49.53;94812.88;2047632;29;1424;-69
2022/06/22 00:16:39;;;;;;;;;;;;;;;23.61;49.46;94813.34;2039997;29;1679;-54
2022/06/22 00:17:42;;;;;;;;;;;;;;;23.58;49.53;94810.31;2032653;29;1389;-58
2022/06/22 00:18:45;;;;;;;;;;;;;;;23.61;49.71;94813.34;2033895;29;1911;-54
2022/06/22 00:19:48;;;;;;;;;;;;;;;23.61;49.54;94816.03;2033765;29;1500;-55
2022/06/22 00:20:51;;;;;;;;;;;;;;;23.61;49.62;94815.22;2041317;29;1322;-64
2022/06/22 00:21:54;;;;;;;;;;;;;;;23.59;49.70;94817.31;2040959;29;1479;-56
2022/06/22 00:22:57;;;;;;;;;;;;;;;23.61;49.66;94815.22;2040589;29;1508;-54
2022/06/22 00:24:01;;;;;;;;;;;;;;;23.62;49.44;94822.22;2041687;29;1960;-54
2022/06/22 00:25:11;;;;;;;;;;;;;;;23.62;49.60;94824.91;2041661;29;1083;-56
2022/06/22 00:26:27;;;;;;;;;;;;;;;23.59;49.53;94825.34;2041725;29;1079;-55
2022/06/22 00:27:31;;;;;;;;;;;;;;;23.56;49.75;94817.78;2037839;29;1641;-51
2022/06/22 00:28:37;;;;;;;;;;;;;;;23.55;49.57;94816.16;2036931;28;1704;-53
2022/06/22 00:29:39;;;;;;;;;;;;;;;23.56;49.69;94815.09;2035338;29;1530;-52
2022/06/22 00:30:46;;;;;;;;;;;;;;;23.53;49.82;94812.88;2041591;29;1016;-53
2022/06/22 00:31:58;;;;;;;;;;;;;;;23.53;49.61;94813.69;2041599;29;1078;-54
2022/06/22 00:33:16;;;;;;;;;;;;;;;23.51;49.46;94815.81;2040907;29;1451;-52
2022/06/22 00:34:23;;;;;;;;;;;;;;;23.51;49.43;94798.91;2034391;29;1629;-55
2022/06/22 00:35:49;;;;;;;;;;;;;;;23.50;49.83;94810.66;2033753;29;1061;-54
2022/06/22 00:36:56;;;;;;;;;;;;;;;23.57;49.96;94811.38;2024062;29;1774;-52
2022/06/22 00:37:58;;;;;;;;;;;;;;;23.52;49.49;94806.72;2033784;29;1000;-54
2022/06/22 00:39:08;;;;;;;;;;;;;;;23.52;49.69;94806.72;2033631;29;1902;-54
2022/06/22 00:40:15;;;;;;;;;;;;;;;23.56;49.76;94807.88;2027780;29;1699;-55
2022/06/22 00:41:19;;;;;;;;;;;;;;;23.56;49.63;94807.88;2037247;29;1642;-53
2022/06/22 00:42:31;;;;;;;;;;;;;;;23.53;49.64;94810.19;2041154;29;1465;-54
2022/06/22 00:43:36;;;;;;;;;;;;;;;23.51;49.61;94812.31;2038309;29;1415;-52
2022/06/22 00:44:42;;;;;;;;;;;;;;;23.49;49.77;94806.38;2033699;29;1087;-48
2022/06/22 00:45:46;;;;;;;;;;;;;;;23.51;49.99;94809.66;2033800;29;1064;-54
2022/06/22 00:46:51;;;;;;;;;;;;;;;23.53;50.06;94811.00;2033695;29;1008;-53
2022/06/22 00:47:56;;;;;;;;;;;;;;;23.53;49.85;94810.19;2036554;29;1530;-53
2022/06/22 00:48:59;;;;;;;;;;;;;;;23.49;49.55;94809.06;2041613;29;1065;-56
2022/06/22 00:50:04;;;;;;;;;;;;;;;23.48;49.66;94807.41;2037584;29;1489;-51
2022/06/22 00:51:08;;;;;;;;;;;;;;;23.45;49.64;94809.53;2030914;29;1496;-54
2022/06/22 00:52:24;;;;;;;;;;;;;;;23.44;49.61;94804.38;2036698;29;1195;-54
2022/06/22 00:53:33;;;;;;;;;;;;;;;23.41;49.52;94810.19;2041606;29;1259;-53
2022/06/22 00:54:36;;;;;;;;;;;;;;;23.43;49.87;94813.50;2041543;29;1054;-53
2022/06/22 00:55:41;;;;;;;;;;;;;;;23.42;49.57;94815.31;2041640;29;1012;-54
2022/06/22 00:56:48;;;;;;;;;;;;;;;23.42;49.61;94815.31;2040548;29;1628;-54
2022/06/22 00:58:05;;;;;;;;;;;;;;;23.43;49.64;94822.34;2041478;29;1189;-61
2022/06/22 00:59:17;;;;;;;;;;;;;;;23.41;49.52;94816.34;2041523;29;1973;-53
2022/06/22 01:00:21;;;;;;;;;;;;;;;23.40;49.58;94820.09;2041671;29;946;-52
2022/06/22 01:01:25;;;;;;;;;;;;;;;23.45;49.45;94812.22;2041420;29;1097;-52
2022/06/22 01:02:32;;;;;;;;;;;;;;;23.48;49.73;94812.75;2036428;29;1490;-52
2022/06/22 01:03:38;;;;;;;;;;;;;;;23.43;49.74;94811.63;2037270;29;1691;-54
2022/06/22 01:04:44;;;;;;;;;;;;;;;23.42;49.71;94812.66;2046763;28;1443;-51
2022/06/22 01:05:50;;;;;;;;;;;;;;;23.42;49.59;94812.66;2038842;29;1713;-55
2022/06/22 01:06:55;;;;;;;;;;;;;;;23.43;49.59;94816.16;2039846;29;1561;-54
2022/06/22 01:08:02;;;;;;;;;;;;;;;23.40;49.53;94809.38;2041500;29;1056;-58
2022/06/22 01:09:08;;;;;;;;;;;;;;;23.41;49.71;94813.69;2041531;29;988;-52
2022/06/22 01:10:12;;;;;;;;;;;;;;;23.44;49.56;94804.38;2040331;29;1488;-53
2022/06/22 01:12:37;;;;;;;;;;;;;;;23.41;49.43;94800.28;2040365;29;1668;-52
2022/06/22 01:13:43;;;;;;;;;;;;;;;23.41;49.63;94804.81;2030721;29;1169;-65
2022/06/22 01:14:56;;;;;;;;;;;;;;;23.39;49.52;94804.22;2028671;29;1219;-50
2022/06/22 01:16:00;;;;;;;;;;;;;;;23.39;49.51;94813.13;2034307;29;1029;-54
2022/06/22 01:17:04;;;;;;;;;;;;;;;23.38;49.72;94802.63;2034881;29;1106;-52
2022/06/22 01:18:09;;;;;;;;;;;;;;;23.38;49.72;94795.38;2035570;29;1505;-53
2022/06/22 01:19:17;;;;;;;;;;;;;;;23.40;49.53;94804.00;2036186;29;1660;-51
2022/06/22 01:20:25;;;;;;;;;;;;;;;23.42;49.77;94801.91;2038546;29;1505;-52
2022/06/22 01:21:28;;;;;;;;;;;;;;;23.40;49.72;94795.97;2041962;29;1585;-49
2022/06/22 01:22:40;;;;;;;;;;;;;;;23.36;49.86;94788.63;2039288;29;1479;-53
2022/06/22 01:24:07;;;;;;;;;;;;;;;23.39;49.65;94788.16;2043066;29;1110;-51
2022/06/22 01:25:16;;;;;;;;;;;;;;;23.40;49.93;94793.28;2023381;29;1574;-53
2022/06/22 01:26:35;;;;;;;;;;;;;;;23.40;49.73;94803.19;2037945;29;1259;-53
2022/06/22 01:27:39;;;;;;;;;;;;;;;23.40;49.79;94803.19;2042430;29;1543;-52
2022/06/22 01:28:51;;;;;;;;;;;;;;;23.39;49.85;94802.38;2042812;29;1158;-52
2022/06/22 01:29:54;;;;;;;;;;;;;;;23.37;49.89;94798.31;2042966;29;1045;-53
2022/06/22 01:31:03;;;;;;;;;;;;;;;23.33;49.86;94797.13;2042936;29;1088;-51
2022/06/22 01:32:07;;;;;;;;;;;;;;;23.31;50.15;94797.38;2042109;29;1625;-52
2022/06/22 01:33:15;;;;;;;;;;;;;;;23.31;50.10;94796.56;2042123;29;1550;-56
2022/06/22 01:34:17;;;;;;;;;;;;;;;23.29;49.92;94794.09;2041199;29;1655;-54
2022/06/22 01:35:23;;;;;;;;;;;;;;;23.30;49.96;94801.09;2042155;29;1454;-55
2022/06/22 01:36:28;;;;;;;;;;;;;;;23.30;50.00;94793.06;2037491;29;1498;-54
2022/06/22 01:37:33;;;;;;;;;;;;;;;23.33;50.08;94795.25;2037877;29;1477;-59
2022/06/22 01:38:37;;;;;;;;;;;;;;;23.33;50.17;94795.25;2042935;29;1039;-53
2022/06/22 01:39:40;;;;;;;;;;;;;;;23.32;50.12;94796.31;2042868;29;1993;-51
2022/06/22 01:40:45;;;;;;;;;;;;;;;23.32;50.05;94801.69;2042728;29;1050;-52
2022/06/22 01:41:52;;;;;;;;;;;;;;;23.29;50.04;94788.75;2042471;29;1029;-53
2022/06/22 01:42:57;;;;;;;;;;;;;;;23.32;50.19;94796.31;2042767;29;1105;-52
2022/06/22 01:44:04;;;;;;;;;;;;;;;23.33;50.28;94792.56;2042921;29;1014;-53
2022/06/22 01:45:11;;;;;;;;;;;;;;;23.24;50.20;94800.16;2042759;29;1165;-54
2022/06/22 01:46:19;;;;;;;;;;;;;;;23.25;50.28;94790.28;2040796;29;1752;-54
2022/06/22 01:47:24;;;;;;;;;;;;;;;23.29;50.45;94794.09;2042722;29;1102;-55
2022/06/22 01:48:31;;;;;;;;;;;;;;;23.29;50.49;94788.75;2030439;29;1648;-55
2022/06/22 01:49:35;;;;;;;;;;;;;;;23.28;50.18;94784.44;2041304;29;1552;-61
2022/06/22 01:50:42;;;;;;;;;;;;;;;23.26;50.21;94783.84;2042551;29;1070;-56
2022/06/22 01:51:46;;;;;;;;;;;;;;;23.26;50.20;94783.03;2042051;29;1551;-61
2022/06/22 01:52:59;;;;;;;;;;;;;;;23.28;50.12;94780.94;2042664;29;1180;-58
2022/06/22 01:54:03;;;;;;;;;;;;;;;23.32;50.31;94780.25;2042731;29;1088;-61
2022/06/22 01:55:11;;;;;;;;;;;;;;;23.33;50.06;94778.38;2042549;29;1097;-59
2022/06/22 01:56:18;;;;;;;;;;;;;;;23.27;50.15;94774.75;2042371;29;1106;-61
2022/06/22 01:57:24;;;;;;;;;;;;;;;23.26;50.23;94778.50;2042717;29;1058;-58
2022/06/22 01:58:35;;;;;;;;;;;;;;;23.25;50.17;94779.56;2043105;29;1027;-55
2022/06/22 01:59:41;;;;;;;;;;;;;;;23.23;49.89;94787.00;2037395;29;1736;-53
2022/06/22 02:00:44;;;;;;;;;;;;;;;23.25;50.16;94779.56;2034446;29;1918;-54
2022/06/22 02:01:50;;;;;;;;;;;;;;;23.26;50.20;94780.38;2035352;29;1607;-73
2022/06/22 02:02:55;;;;;;;;;;;;;;;23.21;50.05;94784.53;2035854;29;1508;-53
2022/06/22 02:04:17;;;;;;;;;;;;;;;23.19;50.22;94775.94;2047893;29;1060;-54
2022/06/22 02:05:21;;;;;;;;;;;;;;;23.19;50.16;94773.25;2050244;28;1106;-55
2022/06/22 02:07:51;;;;;;;;;;;;;;;23.21;50.08;94773.81;2035608;29;1751;-54
2022/06/22 02:08:54;;;;;;;;;;;;;;;23.19;50.02;94775.94;2042583;29;1079;-54
2022/06/22 02:10:03;;;;;;;;;;;;;;;23.22;50.08;94771.97;2042629;29;1012;-52
2022/06/22 02:11:09;;;;;;;;;;;;;;;23.22;50.17;94775.47;2034546;28;1515;-59
2022/06/22 02:12:20;;;;;;;;;;;;;;;23.23;50.04;94776.28;2042279;29;1180;-53
2022/06/22 02:13:28;;;;;;;;;;;;;;;23.22;49.99;94780.84;2042530;29;1000;-54
2022/06/22 02:14:32;;;;;;;;;;;;;;;23.24;50.12;94788.63;2038620;29;1533;-58
2022/06/22 02:15:47;;;;;;;;;;;;;;;23.22;50.28;94780.03;2034543;29;1130;-56
2022/06/22 02:16:53;;;;;;;;;;;;;;;23.19;50.13;94780.47;2040949;29;1511;-54
2022/06/22 02:17:57;;;;;;;;;;;;;;;23.23;50.12;94776.28;2042378;29;1038;-56
2022/06/22 02:19:10;;;;;;;;;;;;;;;23.24;50.28;94772.53;2042400;29;1117;-55
2022/06/22 02:20:27;;;;;;;;;;;;;;;23.24;49.90;94775.22;2042170;29;1989;-55
2022/06/22 02:21:36;;;;;;;;;;;;;;;23.23;49.93;94781.66;2041608;29;1488;-54
2022/06/22 02:22:38;;;;;;;;;;;;;;;23.25;50.09;94774.19;2032228;28;1464;-54
2022/06/22 02:23:41;;;;;;;;;;;;;;;23.33;50.17;94775.69;2042272;29;2076;-54
2022/06/22 02:24:46;;;;;;;;;;;;;;;23.31;50.13;94777.81;2041772;29;1628;-57
2022/06/22 02:25:52;;;;;;;;;;;;;;;23.28;49.95;94773.72;2039021;29;1796;-53
2022/06/22 02:26:56;;;;;;;;;;;;;;;23.24;50.20;94780.59;2042564;29;1293;-54
2022/06/22 02:27:59;;;;;;;;;;;;;;;23.22;50.04;94769.31;2041251;29;1740;-55
2022/06/22 02:29:01;;;;;;;;;;;;;;;23.25;50.16;94779.56;2042343;29;994;-55
2022/06/22 02:30:06;;;;;;;;;;;;;;;23.24;50.32;94777.91;2041879;29;1677;-54
2022/06/22 02:31:08;;;;;;;;;;;;;;;23.23;50.10;94770.94;2042521;29;1051;-53
2022/06/22 02:32:12;;;;;;;;;;;;;;;23.23;50.08;94774.41;2042681;29;1176;-54
2022/06/22 02:33:14;;;;;;;;;;;;;;;23.19;50.38;94775.09;2037456;29;1098;-52
2022/06/22 02:34:17;;;;;;;;;;;;;;;23.18;50.29;94768.13;2037336;29;1567;-59
2022/06/22 02:35:19;;;;;;;;;;;;;;;23.17;50.34;94767.31;2041532;29;1780;-53
2022/06/22 02:36:24;;;;;;;;;;;;;;;23.17;50.14;94766.50;2041732;29;1505;-55
2022/06/22 02:37:29;;;;;;;;;;;;;;;23.19;50.26;94764.38;2041818;29;1716;-53
2022/06/22 02:38:33;;;;;;;;;;;;;;;23.30;49.90;94765.44;2042219;29;1165;-50
2022/06/22 02:39:38;;;;;;;;;;;;;;;23.34;49.97;94767.41;2042154;29;1683;-52
2022/06/22 02:44:48;;;;;;;;;;;;;;;23.31;50.56;94770.56;2034938;28;1536;-56
2022/06/22 02:45:52;;;;;;;;;;;;;;;23.28;50.47;94776.41;2037640;29;1870;-54
2022/06/22 02:46:55;;;;;;;;;;;;;;;23.29;50.56;94775.34;2041429;29;1619;-55
2022/06/22 02:47:58;;;;;;;;;;;;;;;23.25;50.60;94771.50;2041993;29;1023;-55
2022/06/22 02:49:03;;;;;;;;;;;;;;;23.24;50.38;94775.22;2041667;29;1690;-53
2022/06/22 02:50:07;;;;;;;;;;;;;;;23.19;50.41;94767.91;2042163;29;1073;-55
2022/06/22 02:51:14;;;;;;;;;;;;;;;23.19;50.37;94775.94;2041636;29;1511;-52
2022/06/22 02:52:18;;;;;;;;;;;;;;;23.15;50.53;94773.97;2042410;29;1022;-54
2022/06/22 02:53:23;;;;;;;;;;;;;;;23.13;50.57;94768.81;2042173;29;1165;-47
2022/06/22 02:54:28;;;;;;;;;;;;;;;23.11;50.50;94768.25;2042054;29;1638;-54
2022/06/22 02:55:33;;;;;;;;;;;;;;;23.11;50.63;94772.81;2041958;29;995;-55
2022/06/22 02:56:39;;;;;;;;;;;;;;;23.15;50.86;94771.28;2033848;29;1285;-56
2022/06/22 02:57:46;;;;;;;;;;;;;;;23.17;50.39;94777.22;2041302;29;1586;-52
2022/06/22 02:58:49;;;;;;;;;;;;;;;23.14;50.36;94778.50;2041251;29;1641;-54
2022/06/22 02:59:50;;;;;;;;;;;;;;;23.13;50.31;94770.69;2035822;29;1530;-54
2022/06/22 03:00:55;;;;;;;;;;;;;;;23.14;50.44;94777.69;2040858;29;1911;-53
2022/06/22 03:01:58;;;;;;;;;;;;;;;23.11;50.37;94778.16;2041825;29;1472;-56
2022/06/22 03:03:05;;;;;;;;;;;;;;;23.08;50.24;94771.41;2041755;29;1041;-52
2022/06/22 03:04:12;;;;;;;;;;;;;;;23.17;50.67;94771.88;2042382;29;1161;-53
2022/06/22 03:05:19;;;;;;;;;;;;;;;23.21;50.69;94768.47;2042223;29;1041;-55
2022/06/22 03:06:24;;;;;;;;;;;;;;;23.29;50.53;94778.03;2042195;29;1110;-56
2022/06/22 03:07:29;;;;;;;;;;;;;;;23.33;50.47;94783.72;2037875;29;1089;-51
2022/06/22 03:08:30;;;;;;;;;;;;;;;23.28;50.38;94784.44;2037608;29;1461;-52
2022/06/22 03:09:34;;;;;;;;;;;;;;;23.23;50.44;94790.50;2043532;29;1463;-51
2022/06/22 03:10:42;;;;;;;;;;;;;;;23.26;50.55;94786.53;2041771;29;1189;-51
2022/06/22 03:11:47;;;;;;;;;;;;;;;23.22;50.42;94796.09;2038640;29;1822;-52
2022/06/22 03:12:49;;;;;;;;;;;;;;;23.18;50.51;94784.22;2039235;29;1083;-53
2022/06/22 03:13:54;;;;;;;;;;;;;;;23.14;50.66;94786.53;2042274;29;1113;-52
2022/06/22 03:15:01;;;;;;;;;;;;;;;23.14;50.36;94796.47;2041766;29;1700;-51
2022/06/22 03:16:04;;;;;;;;;;;;;;;23.17;50.41;94799.47;2042151;29;1703;-53
2022/06/22 03:17:11;;;;;;;;;;;;;;;23.12;50.56;94788.63;2040367;29;1665;-51
2022/06/22 03:18:15;;;;;;;;;;;;;;;23.11;50.38;94786.19;2041610;29;1985;-52
2022/06/22 03:19:21;;;;;;;;;;;;;;;23.15;50.49;94790.03;2029898;28;1498;-56
2022/06/22 03:20:24;;;;;;;;;;;;;;;23.16;50.51;94788.97;2034019;29;1267;-51
2022/06/22 03:21:27;;;;;;;;;;;;;;;23.16;50.40;94780.94;2034019;29;1973;-52
2022/06/22 03:22:31;;;;;;;;;;;;;;;23.08;50.51;94786.63;2036172;29;1774;-50
2022/06/22 03:23:37;;;;;;;;;;;;;;;23.04;50.45;94782.81;2034713;29;1645;-52
2022/06/22 03:24:44;;;;;;;;;;;;;;;23.06;50.66;94783.41;2038194;29;1656;-51
2022/06/22 03:25:49;;;;;;;;;;;;;;;23.10;50.46;94789.91;2034470;29;1165;-49
2022/06/22 03:26:53;;;;;;;;;;;;;;;23.06;50.60;94794.13;2037344;29;1582;-52
2022/06/22 03:28:00;;;;;;;;;;;;;;;23.10;50.66;94787.22;2034070;29;1098;-52
2022/06/22 03:29:05;;;;;;;;;;;;;;;23.11;50.32;94786.19;2034266;29;1079;-51
2022/06/22 03:30:12;;;;;;;;;;;;;;;23.10;50.46;94788.03;2029878;29;1649;-53
2022/06/22 03:31:18;;;;;;;;;;;;;;;23.10;50.26;94779.19;2037691;29;1169;-52
2022/06/22 03:32:25;;;;;;;;;;;;;;;23.04;50.52;94778.25;2041579;29;1153;-53
2022/06/22 03:33:30;;;;;;;;;;;;;;;23.00;50.42;94782.47;2041407;29;1508;-51
2022/06/22 03:34:35;;;;;;;;;;;;;;;23.04;50.47;94782.81;2040332;29;1855;-52
2022/06/22 03:35:40;;;;;;;;;;;;;;;22.99;50.60;94781.66;2041158;29;1558;-55
2022/06/22 03:36:46;;;;;;;;;;;;;;;23.01;50.20;94779.53;2041914;29;1117;-53
2022/06/22 03:37:50;;;;;;;;;;;;;;;23.02;50.62;94780.34;2042006;29;2094;-54
2022/06/22 03:38:55;;;;;;;;;;;;;;;23.34;51.06;94771.97;2037774;29;1766;-57
2022/06/22 03:39:58;;;;;;;;;;;;;;;23.35;49.68;94768.22;2033176;29;792;-56
2022/06/22 03:41:03;;;;;;;;;;;;;;;23.31;50.39;94767.91;2033372;29;1110;-58
2022/06/22 03:42:09;;;;;;;;;;;;;;;23.18;50.42;94768.13;2027907;29;1992;-49
2022/06/22 03:43:19;;;;;;;;;;;;;;;23.28;49.93;94770.19;2034170;29;1031;-52
2022/06/22 03:44:22;;;;;;;;;;;;;;;23.19;50.25;94783.16;2040954;29;1745;-52
2022/06/22 03:45:27;;;;;;;;;;;;;;;23.10;50.40;94779.19;2038102;29;1577;-50
2022/06/22 03:46:33;;;;;;;;;;;;;;;23.05;50.53;94781.75;2041461;29;1557;-52
2022/06/22 03:47:39;;;;;;;;;;;;;;;23.05;50.44;94784.44;2037171;29;1665;-52
2022/06/22 03:48:44;;;;;;;;;;;;;;;23.01;50.77;94784.09;2034002;29;1037;-53
2022/06/22 03:49:52;;;;;;;;;;;;;;;22.97;50.96;94786.41;2034170;29;1073;-51
2022/06/22 03:50:55;;;;;;;;;;;;;;;22.96;50.87;94792.00;2034241;29;1084;-52
2022/06/22 03:52:01;;;;;;;;;;;;;;;22.95;50.91;94791.19;2034079;29;1090;-53
2022/06/22 03:53:06;;;;;;;;;;;;;;;23.03;50.84;94792.72;2028915;29;1532;-58
2022/06/22 03:54:11;;;;;;;;;;;;;;;23.15;50.55;94790.84;2035097;29;1618;-60
2022/06/22 03:55:15;;;;;;;;;;;;;;;23.17;50.62;94791.44;2041762;29;1622;-53
2022/06/22 03:56:20;;;;;;;;;;;;;;;23.19;50.67;94781.31;2041882;29;1165;-51
2022/06/22 03:57:24;;;;;;;;;;;;;;;23.20;50.94;94779.44;2041788;29;1113;-57
2022/06/22 03:58:27;;;;;;;;;;;;;;;23.10;51.00;94784.56;2042017;29;1161;-60
2022/06/22 03:59:30;;;;;;;;;;;;;;;23.05;51.09;94784.44;2042041;29;1110;-59
2022/06/22 04:00:34;;;;;;;;;;;;;;;23.11;51.49;94794.25;2038038;29;1627;-60
2022/06/22 04:01:37;;;;;;;;;;;;;;;23.18;51.02;94792.25;2033911;29;1915;-53
2022/06/22 04:02:41;;;;;;;;;;;;;;;23.19;51.35;94791.19;2041452;29;1488;-60
2022/06/22 04:03:43;;;;;;;;;;;;;;;23.22;51.31;94801.47;2041446;29;1011;-60
2022/06/22 04:04:47;;;;;;;;;;;;;;;23.29;52.00;94804.84;2028652;29;1644;-51
2022/06/22 04:05:52;;;;;;;;;;;;;;;23.29;52.61;94806.72;2033884;29;1476;-56
2022/06/22 04:06:54;;;;;;;;;;;;;;;23.23;52.18;94809.25;2037229;29;1882;-56
2022/06/22 04:07:57;;;;;;;;;;;;;;;23.20;52.08;94808.91;2041598;29;1788;-51
2022/06/22 04:09:00;;;;;;;;;;;;;;;23.18;51.66;94814.50;2040695;29;1450;-53
2022/06/22 04:10:03;;;;;;;;;;;;;;;23.23;52.08;94808.44;2042289;29;1720;-53
2022/06/22 04:11:07;;;;;;;;;;;;;;;23.23;52.23;94814.63;2041998;29;1293;-57
2022/06/22 04:12:14;;;;;;;;;;;;;;;23.12;52.26;94814.63;2042157;29;1017;-52
2022/06/22 04:13:19;;;;;;;;;;;;;;;23.02;51.99;94813.34;2040768;29;1511;-52
2022/06/22 04:14:26;;;;;;;;;;;;;;;22.98;52.04;94817.53;2042008;29;1322;-53
2022/06/22 04:15:30;;;;;;;;;;;;;;;22.95;52.38;94812.63;2033962;28;1537;-53
2022/06/22 04:16:35;;;;;;;;;;;;;;;22.96;52.31;94811.59;2033192;29;1682;-52
2022/06/22 04:17:40;;;;;;;;;;;;;;;22.89;52.24;94808.19;2036871;29;1528;-52
2022/06/22 04:18:46;;;;;;;;;;;;;;;22.92;52.77;94809.59;2041116;29;1687;-54
2022/06/22 04:19:54;;;;;;;;;;;;;;;22.93;52.54;94804.00;2041290;29;1494;-51
2022/06/22 04:21:01;;;;;;;;;;;;;;;22.94;52.78;94802.97;2040966;29;1865;-51
2022/06/22 04:22:08;;;;;;;;;;;;;;;22.95;52.63;94798.41;2041794;29;1976;-54
2022/06/22 04:23:11;;;;;;;;;;;;;;;22.93;52.76;94798.63;2042073;29;1036;-51
2022/06/22 04:24:15;;;;;;;;;;;;;;;22.92;52.62;94798.88;2041619;29;1007;-51
2022/06/22 04:25:23;;;;;;;;;;;;;;;22.93;52.68;94793.28;2041761;29;1311;-55
2022/06/22 04:26:26;;;;;;;;;;;;;;;22.96;52.83;94787.47;2041073;29;1049;-54
2022/06/22 04:27:31;;;;;;;;;;;;;;;22.99;52.62;94787.00;2034388;28;1189;-51
2022/06/22 04:28:36;;;;;;;;;;;;;;;23.02;52.66;94785.72;2041609;29;1155;-50
2022/06/22 04:29:40;;;;;;;;;;;;;;;23.00;52.67;94787.81;2041855;29;1350;-53
2022/06/22 04:30:44;;;;;;;;;;;;;;;23.02;52.78;94786.53;2041848;29;1153;-47
2022/06/22 04:31:52;;;;;;;;;;;;;;;23.05;52.55;94795.16;2041517;29;1152;-51
2022/06/22 04:33:00;;;;;;;;;;;;;;;23.02;52.74;94791.91;2041945;29;1039;-50
2022/06/22 04:34:05;;;;;;;;;;;;;;;23.05;52.73;94795.16;2041957;29;983;-52
2022/06/22 04:35:17;;;;;;;;;;;;;;;23.04;52.94;94788.16;2041843;29;993;-52
2022/06/22 04:36:23;;;;;;;;;;;;;;;23.08;52.93;94790.16;2041396;29;1075;-51
2022/06/22 04:37:29;;;;;;;;;;;;;;;23.11;52.72;94791.56;2041035;29;1153;-52
2022/06/22 04:38:36;;;;;;;;;;;;;;;23.13;52.61;94797.47;2034188;29;1231;-57
2022/06/22 04:39:41;;;;;;;;;;;;;;;23.12;52.81;94801.22;2040993;29;1102;-54
2022/06/22 04:40:48;;;;;;;;;;;;;;;23.11;52.94;94800.41;2041270;29;1342;-53
2022/06/22 04:41:50;;;;;;;;;;;;;;;23.17;52.84;94796.00;2041236;29;1085;-53
2022/06/22 04:42:56;;;;;;;;;;;;;;;23.19;52.55;94799.22;2041156;29;1993;-60
2022/06/22 04:44:01;;;;;;;;;;;;;;;23.20;52.69;94806.25;2041216;29;1110;-52
2022/06/22 04:45:05;;;;;;;;;;;;;;;23.20;52.33;94808.91;2041135;29;1161;-54
2022/06/22 04:46:09;;;;;;;;;;;;;;;23.19;52.76;94812.63;2040941;29;1560;-52
2022/06/22 04:47:14;;;;;;;;;;;;;;;23.17;53.23;94804.84;2041274;29;1012;-52
2022/06/22 04:48:19;;;;;;;;;;;;;;;23.15;53.29;94811.47;2041147;29;1055;-50
2022/06/22 04:49:25;;;;;;;;;;;;;;;23.14;53.53;94804.50;2037129;28;1039;-52
2022/06/22 04:50:27;;;;;;;;;;;;;;;23.09;53.42;94804.38;2037173;29;1506;-51
2022/06/22 04:51:33;;;;;;;;;;;;;;;23.14;53.69;94809.84;2044196;29;1099;-50
2022/06/22 04:52:38;;;;;;;;;;;;;;;23.16;53.64;94813.09;2044632;29;1106;-52
2022/06/22 04:53:43;;;;;;;;;;;;;;;23.20;53.53;94814.28;2044169;29;1090;-53
2022/06/22 04:54:45;;;;;;;;;;;;;;;23.19;53.46;94815.31;2044578;29;1090;-50
2022/06/22 04:55:48;;;;;;;;;;;;;;;23.18;53.26;94811.00;2044553;29;1048;-53
2022/06/22 04:56:51;;;;;;;;;;;;;;;23.19;53.13;94818.00;2044527;29;1053;-52
2022/06/22 04:57:56;;;;;;;;;;;;;;;23.20;53.40;94816.97;2044491;29;1067;-51
2022/06/22 04:58:59;;;;;;;;;;;;;;;23.26;53.38;94817.91;2044636;29;1015;-49
2022/06/22 05:00:05;;;;;;;;;;;;;;;23.24;53.55;94818.13;2044336;29;1177;-50
2022/06/22 05:01:11;;;;;;;;;;;;;;;23.22;53.48;94818.38;2039543;29;1114;-53
2022/06/22 05:02:15;;;;;;;;;;;;;;;23.22;53.53;94812.19;2041698;29;1303;-52
2022/06/22 05:03:18;;;;;;;;;;;;;;;23.22;53.78;94812.19;2044322;29;2008;-52
2022/06/22 05:04:23;;;;;;;;;;;;;;;23.23;54.01;94819.19;2044527;29;1045;-51
2022/06/22 05:05:27;;;;;;;;;;;;;;;23.27;53.59;94820.31;2044479;29;1090;-53
2022/06/22 05:06:34;;;;;;;;;;;;;;;23.31;53.63;94816.16;2044547;29;1044;-51
2022/06/22 05:07:41;;;;;;;;;;;;;;;23.32;53.51;94823.13;2044602;29;1094;-53
2022/06/22 05:08:48;;;;;;;;;;;;;;;23.37;53.55;94823.25;2044167;29;1029;-55
2022/06/22 05:09:54;;;;;;;;;;;;;;;23.42;53.40;94827.94;2049717;29;1156;-55
2022/06/22 05:11:00;;;;;;;;;;;;;;;23.42;53.41;94823.38;2052527;28;1023;-55
2022/06/22 05:12:02;;;;;;;;;;;;;;;23.47;53.04;94830.72;2047991;28;1139;-51
2022/06/22 05:13:06;;;;;;;;;;;;;;;23.48;53.18;94837.75;2047509;28;1196;-51
2022/06/22 05:14:12;;;;;;;;;;;;;;;23.48;53.02;94827.00;2052470;28;1035;-54
2022/06/22 05:15:23;;;;;;;;;;;;;;;23.49;52.97;94835.88;2052293;28;1169;-51
2022/06/22 05:16:27;;;;;;;;;;;;;;;23.49;52.96;94838.56;2052146;28;1090;-51
2022/06/22 05:17:31;;;;;;;;;;;;;;;23.49;53.28;94843.91;2052347;29;1069;-51
2022/06/22 05:18:38;;;;;;;;;;;;;;;23.48;53.53;94836.91;2052053;28;1057;-53
2022/06/22 05:19:43;;;;;;;;;;;;;;;23.50;53.17;94837.50;2052560;28;1109;-51
2022/06/22 05:20:49;;;;;;;;;;;;;;;23.48;53.59;94839.59;2052231;29;1307;-52
2022/06/22 05:21:51;;;;;;;;;;;;;;;23.48;53.57;94837.75;2052410;28;1081;-52
2022/06/22 05:22:55;;;;;;;;;;;;;;;23.48;53.14;94836.91;2051796;29;1981;-56
2022/06/22 05:23:59;;;;;;;;;;;;;;;23.48;53.13;94831.53;2045568;28;1322;-56
2022/06/22 05:25:03;;;;;;;;;;;;;;;23.46;53.21;94834.47;2051243;28;1160;-51
2022/06/22 05:26:07;;;;;;;;;;;;;;;23.50;53.06;94827.56;2052256;29;1042;-52
2022/06/22 05:27:11;;;;;;;;;;;;;;;23.57;53.22;94830.16;2052289;29;1022;-53
2022/06/22 05:28:16;;;;;;;;;;;;;;;23.65;52.83;94827.13;2052238;28;1117;-53
2022/06/22 05:29:21;;;;;;;;;;;;;;;23.68;52.80;94834.69;2052303;28;1070;-54
2022/06/22 05:30:24;;;;;;;;;;;;;;;23.69;53.22;94831.75;2052017;28;1071;-52
2022/06/22 05:31:28;;;;;;;;;;;;;;;23.72;53.10;94827.78;2052106;29;1090;-52
2022/06/22 05:32:33;;;;;;;;;;;;;;;23.74;53.10;94831.06;2052137;29;1109;-54
2022/06/22 05:33:39;;;;;;;;;;;;;;;23.73;53.36;94824.03;2052054;29;1173;-53
2022/06/22 05:34:43;;;;;;;;;;;;;;;23.76;53.07;94826.28;2048895;28;1186;-52
2022/06/22 05:35:48;;;;;;;;;;;;;;;23.78;53.29;94826.84;2047392;28;1431;-56
2022/06/22 05:36:54;;;;;;;;;;;;;;;23.78;52.69;94818.78;2052227;28;1184;-52
2022/06/22 05:37:59;;;;;;;;;;;;;;;23.78;52.78;94817.97;2052136;28;1029;-52
2022/06/22 05:39:01;;;;;;;;;;;;;;;23.79;52.82;94816.91;2052123;29;1992;-53
2022/06/22 05:40:05;;;;;;;;;;;;;;;23.83;52.82;94826.13;2052208;28;1113;-53
2022/06/22 05:41:08;;;;;;;;;;;;;;;23.88;52.90;94815.53;2052288;28;1095;-53
2022/06/22 05:42:12;;;;;;;;;;;;;;;23.89;52.45;94809.91;2052264;29;1048;-53
2022/06/22 05:43:14;;;;;;;;;;;;;;;23.88;52.80;94810.97;2052019;29;1997;-52
2022/06/22 05:44:18;;;;;;;;;;;;;;;23.89;52.62;94812.59;2052236;28;1042;-54
2022/06/22 05:45:23;;;;;;;;;;;;;;;23.94;52.38;94811.06;2051852;28;1088;-53
2022/06/22 05:46:26;;;;;;;;;;;;;;;23.99;51.73;94811.16;2047984;28;1062;-52
2022/06/22 05:47:29;;;;;;;;;;;;;;;24.03;51.58;94807.75;2047821;29;1195;-53
2022/06/22 05:48:34;;;;;;;;;;;;;;;24.08;51.33;94813.25;2052038;29;1110;-51
2022/06/22 05:49:42;;;;;;;;;;;;;;;24.11;51.13;94815.44;2052046;29;1180;-51
2022/06/22 05:50:48;;;;;;;;;;;;;;;24.14;51.21;94819.56;2052115;28;1085;-55
2022/06/22 05:51:53;;;;;;;;;;;;;;;24.14;51.00;94819.56;2052150;29;1297;-53
2022/06/22 05:52:58;;;;;;;;;;;;;;;24.19;50.83;94826.88;2051991;29;1057;-50